createdAt,value
2023-03-06T00:43:20.249Z,245.01
2023-03-06T00:44:20.195Z,248.95
2023-03-06T00:46:20.105Z,246.76
2023-03-06T00:47:20.049Z,249.24
2023-03-06T00:48:20.003Z,244.06
2023-03-06T00:49:19.985Z,246.72
2023-03-06T00:50:19.951Z,245.66
2023-03-06T00:51:19.897Z,245.67
2023-03-06T00:52:19.856Z,244.81
2023-03-06T00:53:19.782Z,246.97
2023-03-06T00:54:19.742Z,248.24
2023-03-06T00:55:19.738Z,247.49
2023-03-06T00:56:20.071Z,246.54
2023-03-06T00:57:19.605Z,246.91
2023-03-06T00:58:19.676Z,247.06
2023-03-06T00:59:19.501Z,247.38
2023-03-06T01:00:19.492Z,246.78
2023-03-06T01:01:19.487Z,243.90
2023-03-06T01:02:19.451Z,244.07
2023-03-06T01:03:19.335Z,239.14
2023-03-06T01:04:19.278Z,237.16
2023-03-06T01:05:19.253Z,236.40
2023-03-06T01:06:19.204Z,236.31
2023-03-06T01:07:19.162Z,235.11
2023-03-06T01:08:19.125Z,234.35
2023-03-06T01:09:19.072Z,234.92
2023-03-06T01:10:19.007Z,229.73
2023-03-06T01:11:18.991Z,231.25
2023-03-06T01:12:18.934Z,228.12
2023-03-06T01:13:18.885Z,226.34
2023-03-06T01:14:18.861Z,224.19
2023-03-06T01:15:18.838Z,222.15
2023-03-06T01:16:18.891Z,222.87
2023-03-06T01:17:18.713Z,221.88
2023-03-06T01:18:18.675Z,218.69
2023-03-06T01:19:18.627Z,218.93
2023-03-06T01:20:18.598Z,220.61
2023-03-06T01:21:18.555Z,215.59
2023-03-06T01:22:18.497Z,217.88
2023-03-06T01:23:18.452Z,216.64
2023-03-06T01:24:18.416Z,216.38
2023-03-06T01:25:18.385Z,213.75
2023-03-06T01:26:18.328Z,215.01
2023-03-06T01:27:18.295Z,213.59
2023-03-06T01:28:18.247Z,214.15
2023-03-06T01:29:18.212Z,212.81
2023-03-06T01:30:18.181Z,212.40
2023-03-06T01:31:18.185Z,210.60
2023-03-06T01:32:18.156Z,205.31
2023-03-06T01:33:18.802Z,210.52
2023-03-06T01:34:18.006Z,209.27
2023-03-06T01:35:18.045Z,210.86
2023-03-06T01:36:17.983Z,209.79
2023-03-06T01:37:17.904Z,207.82
2023-03-06T01:38:17.862Z,206.65
2023-03-06T01:39:17.855Z,208.29
2023-03-06T01:40:17.797Z,200.68
2023-03-06T01:41:17.762Z,204.40
2023-03-06T01:42:17.735Z,204.35
2023-03-06T01:43:17.692Z,205.10
2023-03-06T01:44:17.647Z,206.15
2023-03-06T01:45:17.644Z,204.53
2023-03-06T01:46:17.574Z,202.50
2023-03-06T01:47:17.531Z,206.01
2023-03-06T01:48:17.495Z,203.94
2023-03-06T01:49:17.466Z,201.93
2023-03-06T01:50:17.430Z,201.61
2023-03-06T01:51:17.403Z,202.49
2023-03-06T01:52:17.336Z,200.73
2023-03-06T01:53:17.312Z,200.86
2023-03-06T01:54:17.275Z,197.20
2023-03-06T01:55:17.236Z,197.76
2023-03-06T01:56:17.215Z,200.64
2023-03-06T01:57:17.208Z,196.52
2023-03-06T01:58:17.136Z,198.51
2023-03-06T01:59:17.107Z,196.82
2023-03-06T02:00:17.082Z,193.84
2023-03-06T02:01:17.129Z,190.15
2023-03-06T02:02:17.001Z,192.62
2023-03-06T02:03:16.942Z,194.68
2023-03-06T02:04:16.920Z,194.76
2023-03-06T02:05:16.877Z,195.44
2023-03-06T02:06:16.809Z,192.08
2023-03-06T02:07:16.776Z,189.21
2023-03-06T02:08:16.746Z,194.85
2023-03-06T02:09:16.715Z,193.06
2023-03-06T02:10:16.649Z,194.04
2023-03-06T02:11:16.628Z,194.56
2023-03-06T02:12:16.586Z,190.34
2023-03-06T02:13:16.536Z,190.95
2023-03-06T02:14:16.507Z,193.20
2023-03-06T02:15:16.448Z,189.61
2023-03-06T02:16:16.406Z,190.56
2023-03-06T02:17:16.404Z,187.01
2023-03-06T02:18:16.317Z,190.43
2023-03-06T02:19:16.309Z,193.19
2023-03-06T02:20:16.253Z,186.09
2023-03-06T02:21:16.223Z,184.81
2023-03-06T02:22:16.184Z,181.06
2023-03-06T02:23:16.157Z,187.15
2023-03-06T02:24:16.096Z,188.48
2023-03-06T02:25:16.062Z,188.29
2023-03-06T02:26:16.041Z,183.73
2023-03-06T02:27:16.333Z,187.76
2023-03-06T02:28:15.963Z,185.65
2023-03-06T02:29:16.013Z,187.98
2023-03-06T02:30:15.892Z,190.08
2023-03-06T02:31:15.927Z,187.06
2023-03-06T02:32:15.849Z,188.84
2023-03-06T02:33:15.782Z,187.51
2023-03-06T02:34:15.754Z,186.22
2023-03-06T02:35:15.728Z,184.00
2023-03-06T02:36:15.671Z,186.19
2023-03-06T02:37:15.652Z,181.91
2023-03-06T02:38:15.610Z,182.31
2023-03-06T02:39:15.557Z,183.14
2023-03-06T02:40:15.503Z,182.99
2023-03-06T02:41:15.481Z,185.02
2023-03-06T02:42:15.434Z,189.18
2023-03-06T02:43:15.375Z,190.98
2023-03-06T02:44:15.335Z,191.60
2023-03-06T02:45:15.304Z,191.81
2023-03-06T02:46:15.299Z,192.17
2023-03-06T02:47:15.222Z,194.18
2023-03-06T02:48:15.189Z,196.90
2023-03-06T02:49:15.150Z,199.46
2023-03-06T02:50:15.120Z,201.65
2023-03-06T02:51:15.056Z,203.80
2023-03-06T02:52:15.009Z,201.66
2023-03-06T02:53:14.977Z,204.11
2023-03-06T02:54:14.947Z,203.61
2023-03-06T02:55:14.885Z,205.89
2023-03-06T02:56:14.895Z,208.79
2023-03-06T02:57:14.837Z,207.79
2023-03-06T02:58:14.770Z,209.81
2023-03-06T02:59:14.765Z,216.40
2023-03-06T03:00:14.696Z,215.11
2023-03-06T03:01:14.686Z,214.43
2023-03-06T03:02:14.646Z,217.16
2023-03-06T03:03:14.590Z,214.53
2023-03-06T03:04:14.633Z,218.67
2023-03-06T03:05:14.517Z,217.86
2023-03-06T03:06:14.484Z,221.53
2023-03-06T03:07:14.465Z,217.37
2023-03-06T03:08:14.436Z,220.38
2023-03-06T03:09:14.399Z,218.57
2023-03-06T03:10:14.372Z,223.28
2023-03-06T03:11:14.318Z,221.11
2023-03-06T03:12:14.300Z,223.53
2023-03-06T03:13:14.269Z,225.96
2023-03-06T03:14:14.220Z,222.40
2023-03-06T03:15:14.162Z,223.02
2023-03-06T03:16:14.206Z,223.72
2023-03-06T03:17:14.088Z,227.26
2023-03-06T03:18:14.062Z,227.02
2023-03-06T03:19:14.044Z,225.88
2023-03-06T03:20:14.080Z,229.98
2023-03-06T03:21:13.927Z,232.12
2023-03-06T03:22:13.927Z,229.71
2023-03-06T03:23:13.837Z,229.32
2023-03-06T03:24:13.874Z,230.18
2023-03-06T03:25:13.821Z,232.19
2023-03-06T03:26:13.715Z,228.41
2023-03-06T03:27:13.693Z,233.79
2023-03-06T03:28:13.647Z,230.89
2023-03-06T03:29:13.653Z,231.88
2023-03-06T03:30:13.641Z,230.80
2023-03-06T03:31:13.590Z,233.47
2023-03-06T03:32:13.570Z,234.05
2023-03-06T03:33:13.470Z,235.59
2023-03-06T03:34:13.435Z,231.67
2023-03-06T03:35:13.374Z,234.86
2023-03-06T03:36:13.336Z,236.58
2023-03-06T03:37:13.287Z,234.72
2023-03-06T03:38:13.270Z,234.73
2023-03-06T03:39:13.211Z,238.05
2023-03-06T03:40:13.193Z,235.54
2023-03-06T03:41:13.144Z,236.26
2023-03-06T03:42:13.124Z,237.12
2023-03-06T03:43:13.079Z,237.97
2023-03-06T03:44:13.060Z,238.28
2023-03-06T03:45:12.996Z,237.52
2023-03-06T03:46:13.040Z,239.69
2023-03-06T03:47:12.918Z,239.81
2023-03-06T03:48:12.864Z,239.01
2023-03-06T03:49:12.809Z,238.21
2023-03-06T03:50:12.762Z,237.02
2023-03-06T03:51:12.717Z,239.06
2023-03-06T03:52:12.678Z,240.22
2023-03-06T03:53:12.633Z,242.45
2023-03-06T03:54:12.582Z,241.27
2023-03-06T03:55:12.580Z,238.60
2023-03-06T03:56:12.505Z,243.09
2023-03-06T03:57:12.459Z,242.95
2023-03-06T03:58:12.426Z,242.90
2023-03-06T03:59:12.372Z,242.02
2023-03-06T04:00:12.363Z,245.52
2023-03-06T04:01:12.290Z,247.53
2023-03-06T04:02:12.305Z,244.71
2023-03-06T04:03:12.223Z,242.48
2023-03-06T04:04:12.170Z,242.55
2023-03-06T04:05:12.238Z,242.23
2023-03-06T04:06:12.097Z,237.38
2023-03-06T04:07:12.044Z,234.25
2023-03-06T04:08:12.015Z,235.79
2023-03-06T04:09:11.992Z,233.47
2023-03-06T04:10:11.934Z,227.34
2023-03-06T04:11:11.895Z,226.64
2023-03-06T04:12:11.837Z,227.59
2023-03-06T04:13:11.793Z,222.62
2023-03-06T04:14:11.784Z,222.70
2023-03-06T04:15:11.725Z,224.54
2023-03-06T04:16:11.742Z,220.44
2023-03-06T04:17:11.634Z,218.44
2023-03-06T04:18:11.597Z,218.32
2023-03-06T04:19:11.604Z,213.84
2023-03-06T04:20:11.537Z,215.56
2023-03-06T04:21:11.514Z,211.89
2023-03-06T04:22:11.450Z,212.68
2023-03-06T04:23:11.400Z,212.68
2023-03-06T04:24:11.403Z,209.70
2023-03-06T04:25:11.382Z,211.90
2023-03-06T04:26:11.303Z,209.41
2023-03-06T04:27:11.317Z,201.94
2023-03-06T04:28:11.220Z,209.03
2023-03-06T04:29:11.172Z,205.62
2023-03-06T04:30:11.138Z,206.19
2023-03-06T04:31:11.140Z,206.51
2023-03-06T04:32:11.079Z,203.96
2023-03-06T04:33:11.012Z,200.80
2023-03-06T04:34:10.967Z,198.63
2023-03-06T04:35:10.932Z,195.86
2023-03-06T04:36:10.878Z,199.50
2023-03-06T04:37:10.843Z,198.84
2023-03-06T04:38:10.798Z,197.66
2023-03-06T04:39:10.819Z,201.15
2023-03-06T04:40:10.725Z,196.64
2023-03-06T04:41:10.659Z,197.58
2023-03-06T04:42:10.615Z,192.90
2023-03-06T04:43:10.544Z,192.54
2023-03-06T04:44:10.519Z,196.51
2023-03-06T04:45:10.454Z,192.13
2023-03-06T04:46:10.437Z,192.30
2023-03-06T04:47:10.398Z,196.18
2023-03-06T04:48:10.357Z,190.25
2023-03-06T04:49:10.279Z,190.61
2023-03-06T04:50:10.252Z,192.93
2023-03-06T04:51:10.189Z,191.13
2023-03-06T04:52:10.132Z,187.58
2023-03-06T04:53:10.086Z,193.07
2023-03-06T04:54:10.031Z,189.93
2023-03-06T04:55:10.025Z,192.10
2023-03-06T04:56:09.929Z,191.77
2023-03-06T04:57:09.888Z,188.01
2023-03-06T04:58:09.840Z,187.29
2023-03-06T04:59:09.795Z,191.44
2023-03-06T05:00:09.777Z,190.22
2023-03-06T05:01:09.719Z,190.85
2023-03-06T05:02:09.682Z,191.23
2023-03-06T05:03:09.674Z,188.46
2023-03-06T05:04:09.547Z,190.83
2023-03-06T05:05:09.518Z,190.13
2023-03-06T05:06:09.464Z,191.11
2023-03-06T05:07:09.401Z,187.93
2023-03-06T05:08:09.355Z,189.27
2023-03-06T05:09:09.316Z,187.29
2023-03-06T05:10:09.266Z,187.84
2023-03-06T05:11:09.227Z,186.44
2023-03-06T05:12:09.187Z,188.13
2023-03-06T05:13:09.127Z,182.45
2023-03-06T05:14:09.096Z,185.64
2023-03-06T05:15:09.061Z,187.29
2023-03-06T05:16:09.047Z,187.73
2023-03-06T05:17:08.961Z,184.06
2023-03-06T05:18:08.922Z,183.44
2023-03-06T05:19:08.883Z,186.07
2023-03-06T05:20:08.832Z,190.21
2023-03-06T05:21:08.774Z,189.91
2023-03-06T05:22:08.740Z,190.03
2023-03-06T05:23:08.695Z,190.38
2023-03-06T05:24:08.665Z,192.35
2023-03-06T05:25:08.611Z,192.17
2023-03-06T05:26:08.563Z,198.36
2023-03-06T05:27:08.537Z,201.43
2023-03-06T05:28:08.496Z,198.98
2023-03-06T05:29:08.444Z,201.47
2023-03-06T05:30:08.437Z,202.19
2023-03-06T05:31:08.354Z,203.35
2023-03-06T05:32:08.461Z,205.66
2023-03-06T05:33:08.272Z,205.68
2023-03-06T05:34:08.913Z,208.56
2023-03-06T05:35:08.206Z,209.47
2023-03-06T05:36:08.133Z,212.52
2023-03-06T05:37:08.077Z,210.63
2023-03-06T05:38:08.045Z,216.07
2023-03-06T05:39:08.014Z,211.94
2023-03-06T05:40:07.972Z,214.53
2023-03-06T05:41:07.913Z,216.75
2023-03-06T05:42:07.880Z,213.92
2023-03-06T05:43:07.830Z,215.24
2023-03-06T05:44:07.801Z,214.01
2023-03-06T05:45:07.792Z,219.31
2023-03-06T05:46:07.753Z,220.19
2023-03-06T05:47:07.673Z,223.69
2023-03-06T05:48:07.655Z,221.32
2023-03-06T05:49:07.582Z,221.47
2023-03-06T05:50:07.544Z,225.96
2023-03-06T05:51:07.474Z,228.60
2023-03-06T05:52:07.438Z,227.21
2023-03-06T05:53:07.392Z,228.62
2023-03-06T05:54:07.342Z,231.78
2023-03-06T05:55:07.369Z,228.13
2023-03-06T05:56:07.426Z,228.94
2023-03-06T05:57:07.208Z,230.87
2023-03-06T05:58:07.150Z,232.36
2023-03-06T05:59:07.129Z,230.58
2023-03-06T06:00:07.073Z,229.11
2023-03-06T06:01:07.036Z,233.83
2023-03-06T06:02:07.044Z,232.21
2023-03-06T06:03:06.948Z,232.79
2023-03-06T06:04:06.893Z,237.14
2023-03-06T06:05:06.817Z,235.21
2023-03-06T06:06:06.795Z,234.80
2023-03-06T06:07:06.729Z,235.25
2023-03-06T06:08:06.694Z,234.43
2023-03-06T06:09:06.664Z,234.55
2023-03-06T06:10:06.600Z,240.08
2023-03-06T06:11:06.605Z,236.51
2023-03-06T06:12:06.531Z,239.22
2023-03-06T06:13:06.459Z,242.76
2023-03-06T06:14:06.435Z,240.00
2023-03-06T06:15:06.397Z,239.03
2023-03-06T06:16:06.380Z,240.39
2023-03-06T06:17:06.292Z,244.68
2023-03-06T06:18:06.255Z,241.95
2023-03-06T06:19:06.270Z,242.29
2023-03-06T06:20:06.162Z,247.52
2023-03-06T06:21:06.132Z,245.90
2023-03-06T06:22:06.078Z,242.91
2023-03-06T06:23:06.044Z,243.98
2023-03-06T06:24:06.006Z,246.12
2023-03-06T06:25:05.965Z,247.81
2023-03-06T06:26:05.922Z,248.04
2023-03-06T06:27:05.870Z,246.56
2023-03-06T06:28:05.830Z,246.20
2023-03-06T06:29:05.769Z,245.38
2023-03-06T06:30:05.736Z,246.94
2023-03-06T06:31:05.749Z,250.00
2023-03-06T06:32:05.762Z,245.82
2023-03-06T06:33:05.604Z,248.65
2023-03-06T06:34:05.544Z,247.13
2023-03-06T06:35:05.700Z,244.98
2023-03-06T06:36:05.467Z,248.11
2023-03-06T06:37:05.407Z,245.86
2023-03-06T06:38:05.366Z,247.08
2023-03-06T06:39:05.365Z,242.46
2023-03-06T06:40:05.286Z,246.99
2023-03-06T06:41:33.449Z,245.86
2023-03-06T06:42:28.898Z,246.01
2023-03-06T06:43:06.116Z,246.15
2023-03-06T06:44:07.202Z,248.21
2023-03-06T06:45:05.029Z,246.43
2023-03-06T06:46:28.274Z,246.73
2023-03-06T06:48:05.992Z,246.86
2023-03-06T06:49:04.852Z,250.06
2023-03-06T06:50:04.775Z,256.77
2023-03-06T06:51:04.740Z,267.48
2023-03-06T06:52:04.671Z,283.71
2023-03-06T06:53:04.612Z,256.58
2023-03-06T06:54:04.593Z,246.70
2023-03-06T06:55:04.496Z,249.85
2023-03-06T06:56:04.518Z,249.08
2023-03-06T06:57:04.376Z,250.00
2023-03-06T06:58:04.318Z,249.29
2023-03-06T06:59:16.128Z,250.00
2023-03-06T07:00:05.209Z,250.34
2023-03-06T07:01:04.210Z,251.57
2023-03-06T07:02:04.115Z,254.20
2023-03-06T07:03:04.051Z,256.41
2023-03-06T07:04:04.189Z,264.47
2023-03-06T07:05:05.437Z,252.10
2023-03-06T07:06:03.846Z,249.17
2023-03-06T07:07:03.945Z,250.00
2023-03-06T07:08:03.773Z,249.38
2023-03-06T07:09:03.677Z,245.27
2023-03-06T07:10:03.644Z,245.53
2023-03-06T07:11:03.569Z,246.99
2023-03-06T07:12:03.537Z,250.31
2023-03-06T07:13:03.439Z,253.49
2023-03-06T07:14:03.384Z,258.29
2023-03-06T07:15:03.350Z,250.00
2023-03-06T07:16:03.303Z,249.79
2023-03-06T07:17:03.220Z,249.55
2023-03-06T07:18:03.176Z,249.14
2023-03-06T07:19:03.106Z,250.00
2023-03-06T07:20:03.042Z,247.58
2023-03-06T07:21:03.013Z,247.84
2023-03-06T07:22:02.927Z,247.98
2023-03-06T07:23:02.888Z,248.69
2023-03-06T07:24:02.794Z,249.79
2023-03-06T07:25:02.745Z,251.23
2023-03-06T07:26:02.696Z,253.43
2023-03-06T07:27:02.709Z,246.70
2023-03-06T07:28:02.591Z,250.00
2023-03-06T07:29:02.496Z,250.00
2023-03-06T07:30:03.005Z,249.41
2023-03-06T07:31:02.414Z,247.61
2023-03-06T07:32:02.427Z,247.80
2023-03-06T07:33:02.319Z,246.94
2023-03-06T07:34:04.823Z,248.55
2023-03-06T07:35:19.128Z,248.14
2023-03-06T07:36:03.204Z,248.31
2023-03-06T07:37:02.055Z,248.48
2023-03-06T07:38:02.011Z,248.33
2023-03-06T07:39:01.954Z,246.50
2023-03-06T07:40:01.875Z,245.94
2023-03-06T07:41:01.923Z,244.30
2023-03-06T07:42:01.775Z,246.85
2023-03-06T07:43:16.764Z,245.01
2023-03-06T07:44:02.686Z,244.22
2023-03-06T07:45:01.596Z,245.21
2023-03-06T07:46:02.481Z,245.30
2023-03-06T07:47:01.526Z,243.42
2023-03-06T07:48:01.450Z,244.43
2023-03-06T07:49:01.396Z,242.35
2023-03-06T07:50:01.330Z,243.65
2023-03-06T07:51:01.284Z,242.28
2023-03-06T07:52:01.261Z,240.83
2023-03-06T07:53:01.200Z,241.23
2023-03-06T07:54:01.126Z,239.22
2023-03-06T07:55:01.063Z,238.81
2023-03-06T07:56:01.098Z,240.33
2023-03-06T07:57:01.003Z,241.29
2023-03-06T07:58:00.887Z,241.27
2023-03-06T07:59:00.926Z,242.21
2023-03-06T08:00:00.863Z,245.03
2023-03-06T08:01:01.494Z,247.11
2023-03-06T08:02:00.742Z,249.69
2023-03-06T08:03:00.752Z,248.99
2023-03-06T08:05:00.503Z,250.00
2023-03-06T08:06:00.445Z,249.11
2023-03-06T08:07:00.402Z,248.38
2023-03-06T08:08:00.329Z,249.60
2023-03-06T08:09:00.370Z,248.32
2023-03-06T08:10:00.254Z,249.77
2023-03-06T08:11:00.140Z,250.00
2023-03-06T08:12:00.133Z,248.79
2023-03-06T08:13:00.034Z,247.92
2023-03-06T08:13:59.966Z,248.00
2023-03-06T08:15:00.036Z,248.26
2023-03-06T08:15:59.910Z,249.26
2023-03-06T08:16:59.760Z,248.53
2023-03-06T08:17:59.734Z,247.52
2023-03-06T08:18:59.669Z,246.18
2023-03-06T08:19:59.597Z,249.19
2023-03-06T08:20:59.531Z,248.25
2023-03-06T08:21:59.458Z,249.43
2023-03-06T08:22:59.423Z,249.16
2023-03-06T08:23:59.336Z,248.85
2023-03-06T08:24:59.293Z,248.14
2023-03-06T08:25:59.253Z,244.97
2023-03-06T08:26:59.166Z,246.84
2023-03-06T08:27:59.170Z,244.40
2023-03-06T08:28:59.070Z,239.75
2023-03-06T08:29:58.992Z,239.38
2023-03-06T08:30:58.958Z,237.82
2023-03-06T08:31:58.923Z,236.70
2023-03-06T08:32:58.882Z,234.98
2023-03-06T08:33:58.862Z,235.11
2023-03-06T08:34:58.694Z,235.44
2023-03-06T08:36:00.661Z,234.51
2023-03-06T08:36:58.707Z,234.48
2023-03-06T08:37:58.961Z,229.82
2023-03-06T08:38:58.500Z,229.29
2023-03-06T08:39:58.493Z,234.79
2023-03-06T08:40:58.333Z,237.06
2023-03-06T08:41:58.271Z,238.92
2023-03-06T08:42:58.670Z,240.10
2023-03-06T08:43:58.155Z,240.43
2023-03-06T08:44:58.092Z,240.06
2023-03-06T08:45:58.130Z,235.61
2023-03-06T08:46:57.959Z,230.65
2023-03-06T08:47:57.905Z,230.46
2023-03-06T08:48:57.853Z,230.36
2023-03-06T08:49:59.446Z,224.76
2023-03-06T08:50:58.015Z,223.20
2023-03-06T08:51:57.904Z,220.34
2023-03-06T08:52:57.870Z,216.65
2023-03-06T08:53:57.826Z,217.25
2023-03-06T08:54:57.866Z,213.11
2023-03-06T08:55:57.759Z,211.47
2023-03-06T08:56:57.636Z,206.69
2023-03-06T08:57:57.668Z,205.73
2023-03-06T08:58:57.671Z,200.17
2023-03-06T08:59:57.697Z,197.03
2023-03-06T09:00:57.817Z,200.53
2023-03-06T09:01:57.700Z,195.22
2023-03-06T09:02:57.627Z,193.18
2023-03-06T09:03:57.683Z,187.96
2023-03-06T09:04:57.684Z,191.24
2023-03-06T09:36:57.771Z,201.87
2023-03-06T09:37:57.117Z,201.07
2023-03-06T09:38:57.058Z,200.96
2023-03-06T09:39:57.028Z,203.30
2023-03-06T09:40:56.939Z,202.31
2023-03-06T09:41:56.963Z,203.39
2023-03-06T11:26:15.917Z,27.44
2023-03-06T12:23:52.138Z,237.29
2023-03-06T12:24:52.124Z,238.35
2023-03-06T12:25:52.035Z,239.02
2023-03-06T12:26:52.017Z,240.11
2023-03-06T12:27:51.909Z,239.79
2023-03-06T12:28:51.847Z,241.51
2023-03-06T12:30:51.778Z,242.60
2023-03-06T12:31:51.719Z,245.11
2023-03-06T12:33:51.789Z,245.69
2023-03-06T12:34:51.501Z,247.38
2023-03-06T12:35:51.461Z,245.34
2023-03-06T12:36:51.338Z,246.30
2023-03-06T12:37:51.313Z,248.00
2023-03-06T12:38:51.251Z,249.32
2023-03-06T12:39:51.282Z,250.23
2023-03-06T12:40:51.141Z,249.14
2023-03-06T12:41:51.036Z,248.33
2023-03-06T12:42:50.978Z,246.49
2023-03-06T12:43:51.117Z,244.00
2023-03-06T12:44:50.944Z,242.12
2023-03-06T12:45:50.832Z,240.41
2023-03-06T12:46:50.741Z,238.13
2023-03-06T12:47:50.704Z,236.44
2023-03-06T12:48:50.626Z,234.44
2023-03-06T12:49:50.552Z,233.33
2023-03-06T12:50:50.522Z,232.28
2023-03-06T12:51:50.418Z,229.42
2023-03-06T12:52:50.662Z,227.92
2023-03-06T12:53:50.349Z,226.73
2023-03-06T12:54:50.225Z,224.01
2023-03-06T12:55:50.166Z,221.37
2023-03-06T12:56:50.074Z,219.22
2023-03-06T12:57:50.019Z,219.44
2023-03-06T12:58:49.941Z,217.83
2023-03-06T13:56:46.388Z,183.61
2023-03-06T14:04:45.919Z,184.66
2023-03-06T14:17:45.156Z,182.52
2023-03-06T14:25:44.699Z,176.59
2023-03-06T14:26:44.632Z,179.01
2023-03-06T14:27:44.584Z,179.95
2023-03-06T14:28:44.515Z,180.00
2023-03-06T14:35:44.156Z,182.02
2023-03-06T14:36:44.068Z,182.97
2023-03-06T14:37:44.018Z,178.19
2023-03-06T14:38:43.961Z,177.92
2023-03-06T14:39:43.904Z,181.17
2023-03-06T14:40:43.825Z,178.71
2023-03-06T14:42:43.717Z,181.51
2023-03-06T14:43:43.677Z,181.55
2023-03-06T14:44:45.070Z,181.86
2023-03-06T14:45:43.614Z,177.30
2023-03-06T14:46:43.499Z,178.67
2023-03-06T14:47:43.427Z,179.61
2023-03-06T14:48:43.377Z,181.00
2023-03-06T14:49:43.306Z,182.47
2023-03-06T14:50:43.249Z,181.92
2023-03-06T14:51:43.259Z,182.13
2023-03-06T14:52:43.180Z,174.26
2023-03-06T14:53:43.074Z,177.90
2023-03-06T14:54:43.717Z,180.26
2023-03-06T14:55:42.969Z,178.32
2023-03-06T14:56:42.991Z,175.36
2023-03-06T14:57:42.906Z,173.70
2023-03-06T14:58:42.821Z,176.75
2023-03-06T14:59:42.757Z,175.86
2023-03-06T15:00:42.699Z,177.54
2023-03-06T15:01:42.647Z,176.90
2023-03-06T15:02:43.198Z,176.13
2023-03-06T15:03:42.517Z,179.48
2023-03-06T15:04:42.488Z,180.26
2023-03-06T15:05:42.400Z,180.53
2023-03-06T15:06:42.353Z,183.07
2023-03-06T15:07:42.380Z,183.57
2023-03-06T15:08:42.208Z,181.73
2023-03-06T15:09:42.204Z,183.19
2023-03-06T15:10:42.109Z,178.83
2023-03-06T15:11:42.071Z,180.62
2023-03-06T15:12:42.054Z,184.59
2023-03-06T15:13:42.078Z,186.46
2023-03-06T15:14:42.021Z,185.43
2023-03-06T15:15:41.853Z,186.41
2023-03-06T15:16:41.836Z,184.55
2023-03-06T15:17:41.796Z,187.30
2023-03-06T15:18:41.703Z,183.07
2023-03-06T15:19:41.708Z,182.99
2023-03-06T15:20:41.600Z,186.08
2023-03-06T15:21:41.553Z,179.40
2023-03-06T15:22:41.493Z,181.60
2023-03-06T15:23:41.548Z,181.77
2023-03-06T15:24:41.404Z,182.71
2023-03-06T15:25:41.306Z,186.47
2023-03-06T15:26:41.346Z,187.99
2023-03-06T15:27:41.213Z,187.59
2023-03-06T15:28:41.119Z,184.33
2023-03-06T15:29:41.083Z,184.91
2023-03-06T15:30:41.011Z,186.19
2023-03-06T15:31:40.982Z,186.17
2023-03-06T15:32:40.946Z,184.21
2023-03-06T15:33:40.988Z,185.07
2023-03-06T15:34:40.778Z,187.16
2023-03-06T15:35:40.758Z,187.79
2023-03-06T15:36:40.651Z,185.32
2023-03-06T15:37:40.611Z,185.32
2023-03-06T15:38:40.554Z,186.13
2023-03-06T15:39:40.516Z,186.03
2023-03-06T15:40:40.477Z,187.60
2023-03-06T15:41:40.393Z,183.85
2023-03-06T15:42:40.350Z,179.65
2023-03-06T15:43:40.311Z,181.80
2023-03-06T15:44:40.250Z,185.08
2023-03-06T15:45:40.170Z,183.26
2023-03-06T15:46:40.214Z,183.89
2023-03-06T15:47:40.084Z,186.16
2023-03-06T15:48:40.040Z,186.31
2023-03-06T15:49:39.988Z,188.44
2023-03-06T15:50:39.935Z,186.38
2023-03-06T15:51:39.877Z,190.26
2023-03-06T15:52:39.771Z,192.36
2023-03-06T15:53:39.771Z,193.13
2023-03-06T15:54:39.723Z,192.40
2023-03-06T15:55:39.621Z,192.74
2023-03-06T15:56:39.595Z,187.65
2023-03-06T15:57:39.515Z,188.73
2023-03-06T15:58:39.446Z,188.66
2023-03-06T15:59:39.390Z,189.80
2023-03-06T16:00:39.357Z,190.28
2023-03-06T16:01:39.278Z,190.72
2023-03-06T16:02:39.209Z,190.33
2023-03-06T16:03:39.202Z,189.43
2023-03-06T16:04:39.204Z,191.14
2023-03-06T16:05:39.050Z,191.28
2023-03-06T16:06:38.994Z,191.61
2023-03-06T16:07:38.928Z,191.96
2023-03-06T16:08:38.896Z,193.37
2023-03-06T16:09:38.824Z,191.02
2023-03-06T16:10:39.198Z,191.98
2023-03-06T16:11:43.938Z,191.38
2023-03-06T16:12:39.618Z,191.41
2023-03-06T16:13:38.565Z,191.53
2023-03-06T16:14:38.497Z,191.49
2023-03-06T16:15:38.457Z,189.48
2023-03-06T16:16:38.455Z,188.99
2023-03-06T16:17:38.328Z,191.75
2023-03-06T16:18:38.264Z,190.93
2023-03-06T16:19:38.198Z,190.87
2023-03-06T16:20:38.151Z,189.16
2023-03-06T16:21:38.063Z,189.60
2023-03-06T16:22:38.010Z,191.83
2023-03-06T16:23:37.995Z,191.77
2023-03-06T16:24:37.897Z,191.32
2023-03-06T16:25:37.830Z,192.13
2023-03-06T16:26:37.764Z,191.37
2023-03-06T16:27:37.696Z,192.12
2023-03-06T16:28:37.665Z,193.20
2023-03-06T16:29:37.567Z,191.47
2023-03-06T16:30:37.556Z,191.71
2023-03-06T16:31:37.467Z,190.93
2023-03-06T16:32:37.434Z,191.80
2023-03-06T16:33:37.327Z,192.28
2023-03-06T16:34:37.267Z,190.54
2023-03-06T16:35:37.222Z,192.44
2023-03-06T16:36:37.144Z,194.57
2023-03-06T16:37:37.073Z,190.42
2023-03-06T16:38:37.028Z,189.63
2023-03-06T16:39:36.964Z,188.60
2023-03-06T16:40:36.934Z,189.78
2023-03-06T16:41:36.837Z,190.83
2023-03-06T16:42:36.772Z,190.84
2023-03-06T16:43:36.731Z,190.89
2023-03-06T16:44:36.695Z,191.02
2023-03-06T16:45:36.628Z,191.22
2023-03-06T16:46:36.569Z,192.13
2023-03-06T16:47:36.492Z,191.31
2023-03-06T16:48:36.430Z,191.04
2023-03-06T16:49:36.422Z,191.66
2023-03-06T16:50:36.354Z,192.15
2023-03-06T16:51:36.281Z,192.35
2023-03-06T16:52:36.235Z,191.73
2023-03-06T16:53:36.204Z,191.33
2023-03-06T16:54:36.132Z,192.18
2023-03-06T16:55:36.153Z,190.52
2023-03-06T16:56:36.011Z,191.29
2023-03-06T16:57:35.981Z,189.72
2023-03-06T16:58:35.905Z,187.51
2023-03-06T16:59:35.843Z,189.08
2023-03-06T17:00:35.780Z,190.76
2023-03-06T17:01:35.796Z,189.85
2023-03-06T17:02:35.751Z,191.29
2023-03-06T17:03:35.637Z,187.17
2023-03-06T17:04:35.573Z,188.57
2023-03-06T17:05:35.531Z,188.94
2023-03-06T17:06:35.546Z,189.17
2023-03-06T17:07:35.452Z,191.31
2023-03-06T17:08:35.370Z,191.69
2023-03-06T17:09:35.334Z,192.68
2023-03-06T17:10:35.284Z,191.10
2023-03-06T17:11:35.217Z,192.14
2023-03-06T17:12:35.179Z,191.64
2023-03-06T17:13:35.119Z,190.50
2023-03-06T17:14:35.075Z,190.19
2023-03-06T17:15:35.099Z,190.01
2023-03-06T17:16:34.972Z,189.90
2023-03-06T17:17:34.917Z,190.17
2023-03-06T17:18:34.896Z,191.77
2023-03-06T17:19:34.849Z,190.10
2023-03-06T17:20:34.770Z,191.78
2023-03-06T17:21:34.709Z,192.49
2023-03-06T17:22:34.673Z,190.82
2023-03-06T17:23:34.606Z,193.79
2023-03-06T17:24:34.549Z,191.10
2023-03-06T17:25:34.509Z,191.71
2023-03-06T17:26:34.442Z,192.35
2023-03-06T17:27:34.407Z,191.07
2023-03-06T17:28:34.346Z,189.35
2023-03-06T17:29:34.292Z,188.03
2023-03-06T17:30:34.242Z,190.27
2023-03-06T17:31:34.222Z,190.86
2023-03-06T17:32:34.199Z,192.66
2023-03-06T17:33:34.096Z,189.87
2023-03-06T17:34:34.032Z,192.74
2023-03-06T17:35:33.989Z,188.91
2023-03-06T17:36:33.936Z,188.96
2023-03-06T17:37:33.942Z,192.29
2023-03-06T17:38:33.825Z,192.58
2023-03-06T17:39:33.788Z,193.50
2023-03-06T17:40:34.682Z,194.40
2023-03-06T17:41:33.678Z,193.73
2023-03-06T17:42:33.643Z,193.77
2023-03-06T17:43:33.592Z,192.62
2023-03-06T17:44:33.540Z,192.81
2023-03-06T17:45:33.619Z,193.14
2023-03-06T17:46:33.435Z,192.01
2023-03-06T17:47:33.389Z,191.60
2023-03-06T17:48:33.352Z,191.57
2023-03-06T17:49:33.327Z,193.62
2023-03-06T17:50:33.237Z,194.98
2023-03-06T17:51:33.226Z,196.39
2023-03-06T17:52:33.163Z,195.38
2023-03-06T17:53:33.113Z,196.07
2023-03-06T17:54:33.067Z,194.19
2023-03-06T17:55:33.029Z,194.79
2023-03-06T17:56:32.957Z,195.41